createdAt,value
2023-03-18T00:02:37.080Z,-3.7
2023-03-18T00:08:30.549Z,-3.7
2023-03-18T00:18:58.082Z,-3.8
2023-03-18T00:24:20.013Z,-3.9
2023-03-18T00:35:49.443Z,-3.8
2023-03-18T00:41:43.483Z,-3.9
2023-03-18T00:47:36.673Z,-4
2023-03-18T00:52:58.440Z,-4
2023-03-18T00:58:36.687Z,-4
2023-03-18T01:04:30.197Z,-4.2
2023-03-18T01:10:07.648Z,-4.3
2023-03-18T01:15:48.410Z,-4.3
2023-03-18T01:21:41.065Z,-4.4
2023-03-18T01:27:02.745Z,-4.6
2023-03-18T01:32:40.068Z,-4.5
2023-03-18T01:38:32.682Z,-4.6
2023-03-18T01:44:24.430Z,-4.7
2023-03-18T01:50:02.149Z,-4.8
2023-03-18T01:55:24.350Z,-4.8
2023-03-18T02:01:16.836Z,-4.8
2023-03-18T02:07:11.200Z,-4.9
2023-03-18T02:12:47.796Z,-4.9
2023-03-18T02:18:40.596Z,-4.7
2023-03-18T02:24:02.512Z,-4.6
2023-03-18T02:29:40.708Z,-4.6
2023-03-18T02:35:33.010Z,-4.7
2023-03-18T02:41:26.961Z,-4.8
2023-03-18T02:47:19.226Z,-4.8
2023-03-18T02:53:10.877Z,-4.9
2023-03-18T02:59:03.862Z,-4.9
2023-03-18T03:04:11.625Z,-5
2023-03-18T03:09:48.479Z,-5.1
2023-03-18T03:15:26.169Z,-5.1
2023-03-18T03:21:03.483Z,-5.3
2023-03-18T03:26:55.893Z,-5.4
2023-03-18T03:32:48.671Z,-5.4
2023-03-18T03:38:10.450Z,-5.4
2023-03-18T03:44:03.478Z,-5.4
2023-03-18T03:49:56.774Z,-5.4
2023-03-18T03:55:34.302Z,-5.4
2023-03-18T04:01:11.128Z,-5.4
2023-03-18T04:06:33.136Z,-5.4
2023-03-18T04:12:10.227Z,-5.3
2023-03-18T04:18:04.252Z,-5.1
2023-03-18T04:23:26.261Z,-5
2023-03-18T04:29:02.622Z,-4.9
2023-03-18T04:34:56.115Z,-4.8
2023-03-18T04:40:48.975Z,-4.8
2023-03-18T04:46:42.181Z,-4.7
2023-03-18T04:52:34.899Z,-4.5
2023-03-18T04:58:13.105Z,-4.4
2023-03-18T05:03:53.867Z,-4.3
2023-03-18T05:09:46.305Z,-4.1
2023-03-18T05:15:39.006Z,-4
2023-03-18T05:21:00.169Z,-3.9
2023-03-18T05:26:52.384Z,-3.8
2023-03-18T05:32:46.033Z,-3.6
2023-03-18T05:38:39.969Z,-3.3
2023-03-18T05:44:40.736Z,-3
2023-03-18T05:50:33.848Z,-2.7
2023-03-18T05:56:27.570Z,-2.3
2023-03-18T06:01:49.957Z,-1.8
2023-03-18T06:07:28.519Z,-1.1
2023-03-18T06:13:22.466Z,-0.6
2023-03-18T06:19:16.474Z,-0.3
2023-03-18T06:24:54.452Z,0.2
2023-03-18T06:30:47.582Z,0.6
2023-03-18T06:36:40.925Z,0.9
2023-03-18T06:42:33.626Z,1.6
2023-03-18T06:48:28.984Z,2.5
2023-03-18T06:54:20.882Z,3.9
2023-03-18T07:00:13.487Z,6.3
2023-03-18T07:05:51.630Z,8.8
2023-03-18T07:11:43.673Z,11.3
2023-03-18T07:17:36.482Z,14.4
2023-03-18T07:23:17.456Z,17.3
2023-03-18T07:28:55.879Z,22.9
2023-03-18T07:34:52.766Z,26.4
2023-03-18T07:40:45.547Z,34.1
2023-03-18T07:46:40.989Z,42.7
2023-03-18T07:52:33.616Z,42.8
2023-03-18T07:58:27.282Z,36
2023-03-18T08:04:24.575Z,43.1
2023-03-18T08:10:03.678Z,45.9
2023-03-18T08:16:15.866Z,42.2
2023-03-18T08:22:09.543Z,43.7
2023-03-18T08:28:02.505Z,45.4
2023-03-18T08:33:56.262Z,46.9
2023-03-18T08:39:51.240Z,48.6
2023-03-18T08:45:28.292Z,49.2
2023-03-18T08:51:06.284Z,49.9
2023-03-18T08:56:58.534Z,50.9
2023-03-18T09:07:58.082Z,54.1
2023-03-18T09:13:57.679Z,55.4
2023-03-18T09:20:16.834Z,56.4
2023-03-18T09:26:09.382Z,57.1
2023-03-18T09:32:02.539Z,55.3
2023-03-18T09:37:55.636Z,56.8
2023-03-18T09:43:48.832Z,57.6
2023-03-18T09:49:42.349Z,58
2023-03-18T09:55:35.149Z,60.2
2023-03-18T10:01:11.585Z,61.1
2023-03-18T10:07:04.989Z,61
2023-03-18T10:12:41.838Z,60.8
2023-03-18T10:18:19.277Z,58.8
2023-03-18T10:24:12.847Z,59.8
2023-03-18T10:30:16.647Z,58.1
2023-03-18T10:36:12.644Z,58.8
2023-03-18T10:42:06.417Z,56
2023-03-18T10:47:59.087Z,46.5
2023-03-18T10:53:51.587Z,41.6
2023-03-18T10:59:43.852Z,38.1
2023-03-18T11:05:36.806Z,35.4
2023-03-18T11:11:30.458Z,33.3
2023-03-18T11:17:23.935Z,31.4
2023-03-18T11:23:16.821Z,29.4
2023-03-18T11:29:09.285Z,35.6
2023-03-18T11:35:12.701Z,46.8
2023-03-18T11:41:11.024Z,55.8
2023-03-18T11:47:03.735Z,62.2
2023-03-18T11:52:41.616Z,50.9
2023-03-18T11:58:03.757Z,47.9
2023-03-18T12:03:26.629Z,54.4
2023-03-18T12:08:50.222Z,60.9
2023-03-18T12:14:44.257Z,55.1
2023-03-18T12:20:38.759Z,53.1
2023-03-18T12:26:16.324Z,61.4
2023-03-18T12:31:38.697Z,55.9
2023-03-18T12:37:17.607Z,46.8
2023-03-18T12:43:11.701Z,49.5
2023-03-18T12:49:16.962Z,53.1
2023-03-18T12:54:53.806Z,57.8
2023-03-18T13:00:49.710Z,56.4
2023-03-18T13:06:30.915Z,49.9
2023-03-18T13:12:08.356Z,51.5
2023-03-18T13:17:49.113Z,53.5
2023-03-18T13:23:42.599Z,54.3
2023-03-18T13:29:36.548Z,50.6
2023-03-18T13:35:31.003Z,51.1
2023-03-18T13:41:24.684Z,51.4
2023-03-18T13:47:18.377Z,52
2023-03-18T13:52:56.578Z,53.2
2023-03-18T13:58:48.781Z,52.9
2023-03-18T14:04:42.909Z,51.1
2023-03-18T14:10:51.884Z,47.4
2023-03-18T14:16:46.462Z,46.7
2023-03-18T14:22:26.914Z,45.4
2023-03-18T14:27:50.747Z,43.8
2023-03-18T14:33:12.758Z,42.8
2023-03-18T14:38:49.876Z,41.8
2023-03-18T14:44:45.577Z,39.6
2023-03-18T14:50:31.628Z,37.9
2023-03-18T14:56:08.577Z,36.3
2023-03-18T15:02:01.074Z,34.7
2023-03-18T15:07:53.614Z,33.7
2023-03-18T15:13:44.213Z,32.3
2023-03-18T15:19:21.539Z,30.3
2023-03-18T15:25:14.660Z,28.4
2023-03-18T15:30:51.717Z,26.1
2023-03-18T15:36:45.633Z,23.9
2023-03-18T15:42:38.165Z,22
2023-03-18T15:48:15.829Z,20.3
2023-03-18T15:59:46.937Z,17.3
2023-03-18T16:05:38.870Z,16.1
2023-03-18T16:11:32.243Z,14.9
2023-03-18T16:17:09.584Z,13.9
2023-03-18T16:23:02.650Z,12.9
2023-03-18T16:28:55.573Z,12.1
2023-03-18T16:34:48.610Z,11.2
2023-03-18T16:40:26.368Z,10.4
2023-03-18T16:46:04.638Z,9.8
2023-03-18T16:51:40.947Z,9.1
2023-03-18T16:57:18.522Z,8.6
2023-03-18T17:03:11.274Z,8.1
2023-03-18T17:08:49.109Z,7.6
2023-03-18T17:14:44.484Z,7.1
2023-03-18T17:20:21.271Z,6.7
2023-03-18T17:26:13.879Z,6.3
2023-03-18T17:31:51.597Z,6
2023-03-18T17:37:47.232Z,5.7
2023-03-18T17:43:24.731Z,5.4
2023-03-18T17:49:02.077Z,5.1
2023-03-18T17:54:39.331Z,4.9
2023-03-18T18:00:31.956Z,4.7
2023-03-18T18:06:09.940Z,4.5
2023-03-18T18:11:46.801Z,4.4
2023-03-18T18:17:24.288Z,4.3
2023-03-18T18:23:19.752Z,4.1
2023-03-18T18:28:58.506Z,3.9
2023-03-18T18:34:24.475Z,3.8
2023-03-18T18:40:01.936Z,3.7
2023-03-18T18:45:54.524Z,3.7
2023-03-18T18:51:17.134Z,3.7
2023-03-18T18:57:10.778Z,3.6
2023-03-18T19:03:04.442Z,3.5
2023-03-18T19:08:42.314Z,3.5
2023-03-18T19:14:36.297Z,3.3
2023-03-18T19:20:14.253Z,3.1
2023-03-18T19:26:07.071Z,3
2023-03-18T19:31:51.901Z,2.8
2023-03-18T19:37:43.740Z,2.6
2023-03-18T19:43:22.553Z,2.3
2023-03-18T19:49:01.933Z,2.1
2023-03-18T19:54:56.970Z,1.9
2023-03-18T20:00:52.168Z,1.8
2023-03-18T20:06:46.666Z,1.8
2023-03-18T20:12:38.695Z,1.6
2023-03-18T20:18:32.054Z,1.4
2023-03-18T20:24:24.671Z,1.3
2023-03-18T20:30:02.021Z,1.1
2023-03-18T20:35:24.879Z,1.1
2023-03-18T20:40:31.429Z,1.1
2023-03-18T20:45:53.485Z,1.1
2023-03-18T20:51:31.623Z,1.1
2023-03-18T20:57:23.738Z,0.9
2023-03-18T21:03:01.643Z,0.8
2023-03-18T21:08:55.175Z,0.6
2023-03-18T21:14:32.837Z,0.4
2023-03-18T21:20:39.229Z,0.3
2023-03-18T21:26:32.433Z,0.2
2023-03-18T21:32:43.049Z,0
2023-03-18T21:38:20.989Z,-0.1
2023-03-18T21:44:14.125Z,-0.4
2023-03-18T21:49:54.217Z,-0.5
2023-03-18T21:55:58.436Z,-0.6
2023-03-18T22:01:51.535Z,-0.8
2023-03-18T22:07:44.245Z,-0.8
2023-03-18T22:18:43.607Z,-1
2023-03-18T22:24:21.003Z,-1.1
2023-03-18T22:29:43.306Z,-1.2
2023-03-18T22:35:21.373Z,-1.3
2023-03-18T22:41:14.841Z,-1.4
2023-03-18T22:47:09.455Z,-1.4
2023-03-18T22:52:46.197Z,-1.5
2023-03-18T22:58:25.468Z,-1.6
2023-03-18T23:04:19.703Z,-1.6
2023-03-18T23:09:50.476Z,-1.6
2023-03-18T23:15:48.848Z,-1.7
2023-03-18T23:21:42.525Z,-1.8
2023-03-18T23:27:35.204Z,-1.9
2023-03-18T23:33:32.721Z,-1.9
2023-03-18T23:38:39.678Z,-2
2023-03-18T23:44:32.777Z,-2.1
2023-03-18T23:50:27.607Z,-2.2
2023-03-18T23:56:42.941Z,-2.3
